sensor_id;sensor_type;location;lat;lon;timestamp;P1;durP1;ratioP1;P2;durP2;ratioP2
36423;SDS011;22458;45.328;9.514;2023-06-24T00:02:16;5.55;;;3.70;;
36423;SDS011;22458;45.328;9.514;2023-06-24T00:04:42;7.05;;;3.67;;
36423;SDS011;22458;45.328;9.514;2023-06-24T00:07:08;8.98;;;4.22;;
36423;SDS011;22458;45.328;9.514;2023-06-24T00:09:34;8.85;;;4.20;;
36423;SDS011;22458;45.328;9.514;2023-06-24T00:11:59;7.70;;;3.67;;
36423;SDS011;22458;45.328;9.514;2023-06-24T00:14:27;6.78;;;3.60;;
36423;SDS011;22458;45.328;9.514;2023-06-24T00:16:53;12.43;;;3.40;;
36423;SDS011;22458;45.328;9.514;2023-06-24T00:19:22;6.83;;;4.27;;
36423;SDS011;22458;45.328;9.514;2023-06-24T00:21:49;5.70;;;3.13;;
36423;SDS011;22458;45.328;9.514;2023-06-24T00:24:16;6.03;;;4.00;;
36423;SDS011;22458;45.328;9.514;2023-06-24T00:26:43;5.88;;;3.70;;
36423;SDS011;22458;45.328;9.514;2023-06-24T00:29:08;5.88;;;3.63;;
36423;SDS011;22458;45.328;9.514;2023-06-24T00:31:36;7.55;;;3.92;;
36423;SDS011;22458;45.328;9.514;2023-06-24T00:34:01;6.57;;;3.90;;
36423;SDS011;22458;45.328;9.514;2023-06-24T00:36:27;6.72;;;4.10;;
36423;SDS011;22458;45.328;9.514;2023-06-24T00:38:53;6.72;;;4.38;;
36423;SDS011;22458;45.328;9.514;2023-06-24T00:41:21;6.65;;;4.10;;
36423;SDS011;22458;45.328;9.514;2023-06-24T00:43:47;9.57;;;5.35;;
36423;SDS011;22458;45.328;9.514;2023-06-24T00:46:14;7.95;;;4.85;;
36423;SDS011;22458;45.328;9.514;2023-06-24T00:48:40;8.45;;;4.35;;
36423;SDS011;22458;45.328;9.514;2023-06-24T00:51:06;7.30;;;4.50;;
36423;SDS011;22458;45.328;9.514;2023-06-24T00:53:32;8.55;;;4.15;;
36423;SDS011;22458;45.328;9.514;2023-06-24T00:55:58;6.95;;;4.32;;
36423;SDS011;22458;45.328;9.514;2023-06-24T00:58:31;7.43;;;5.00;;
36423;SDS011;22458;45.328;9.514;2023-06-24T01:00:58;10.05;;;5.20;;
36423;SDS011;22458;45.328;9.514;2023-06-24T01:03:25;9.43;;;5.80;;
36423;SDS011;22458;45.328;9.514;2023-06-24T01:05:52;9.43;;;6.32;;
36423;SDS011;22458;45.328;9.514;2023-06-24T01:08:19;8.38;;;5.72;;
36423;SDS011;22458;45.328;9.514;2023-06-24T01:10:48;8.85;;;5.53;;
36423;SDS011;22458;45.328;9.514;2023-06-24T01:13:17;9.13;;;5.47;;
36423;SDS011;22458;45.328;9.514;2023-06-24T01:15:43;8.95;;;6.13;;
36423;SDS011;22458;45.328;9.514;2023-06-24T01:37:14;5.82;;;5.15;;
36423;SDS011;22458;45.328;9.514;2023-06-24T01:40:02;8.40;;;4.65;;
36423;SDS011;22458;45.328;9.514;2023-06-24T01:42:38;7.22;;;4.75;;
36423;SDS011;22458;45.328;9.514;2023-06-24T01:47:34;7.95;;;5.32;;
36423;SDS011;22458;45.328;9.514;2023-06-24T01:50:02;8.38;;;5.90;;
36423;SDS011;22458;45.328;9.514;2023-06-24T01:52:29;6.75;;;5.28;;
36423;SDS011;22458;45.328;9.514;2023-06-24T01:54:56;9.90;;;5.55;;
36423;SDS011;22458;45.328;9.514;2023-06-24T01:57:24;7.65;;;5.80;;
36423;SDS011;22458;45.328;9.514;2023-06-24T01:59:52;7.60;;;5.55;;
36423;SDS011;22458;45.328;9.514;2023-06-24T02:02:20;7.75;;;5.13;;
36423;SDS011;22458;45.328;9.514;2023-06-24T02:04:48;9.18;;;6.10;;
36423;SDS011;22458;45.328;9.514;2023-06-24T02:07:15;9.18;;;5.68;;
36423;SDS011;22458;45.328;9.514;2023-06-24T02:09:44;7.03;;;4.78;;
36423;SDS011;22458;45.328;9.514;2023-06-24T02:12:11;7.47;;;5.55;;
36423;SDS011;22458;45.328;9.514;2023-06-24T02:14:38;9.65;;;6.43;;
36423;SDS011;22458;45.328;9.514;2023-06-24T02:17:05;7.43;;;5.45;;
36423;SDS011;22458;45.328;9.514;2023-06-24T02:19:33;10.57;;;6.75;;
36423;SDS011;22458;45.328;9.514;2023-06-24T02:22:01;17.08;;;7.20;;
36423;SDS011;22458;45.328;9.514;2023-06-24T02:24:27;10.73;;;6.78;;
36423;SDS011;22458;45.328;9.514;2023-06-24T02:26:55;9.32;;;6.60;;
36423;SDS011;22458;45.328;9.514;2023-06-24T02:29:24;11.02;;;6.60;;
36423;SDS011;22458;45.328;9.514;2023-06-24T02:31:53;8.70;;;6.18;;
36423;SDS011;22458;45.328;9.514;2023-06-24T02:34:19;9.55;;;7.15;;
36423;SDS011;22458;45.328;9.514;2023-06-24T02:36:45;9.75;;;6.72;;
36423;SDS011;22458;45.328;9.514;2023-06-24T02:39:11;11.32;;;7.07;;
36423;SDS011;22458;45.328;9.514;2023-06-24T02:41:37;9.63;;;6.68;;
36423;SDS011;22458;45.328;9.514;2023-06-24T02:44:03;10.35;;;6.88;;
36423;SDS011;22458;45.328;9.514;2023-06-24T02:46:29;13.00;;;7.25;;
36423;SDS011;22458;45.328;9.514;2023-06-24T02:48:57;9.57;;;7.00;;
36423;SDS011;22458;45.328;9.514;2023-06-24T02:51:25;10.20;;;7.10;;
36423;SDS011;22458;45.328;9.514;2023-06-24T02:53:51;7.97;;;6.60;;
36423;SDS011;22458;45.328;9.514;2023-06-24T02:56:25;8.80;;;6.95;;
36423;SDS011;22458;45.328;9.514;2023-06-24T02:58:53;11.13;;;7.35;;
36423;SDS011;22458;45.328;9.514;2023-06-24T03:01:23;9.95;;;7.82;;
36423;SDS011;22458;45.328;9.514;2023-06-24T03:03:55;9.80;;;7.30;;
36423;SDS011;22458;45.328;9.514;2023-06-24T03:06:21;9.93;;;6.75;;
36423;SDS011;22458;45.328;9.514;2023-06-24T03:08:48;11.63;;;6.80;;
36423;SDS011;22458;45.328;9.514;2023-06-24T03:11:16;8.45;;;7.28;;
36423;SDS011;22458;45.328;9.514;2023-06-24T03:13:43;14.07;;;8.10;;
36423;SDS011;22458;45.328;9.514;2023-06-24T03:16:19;15.65;;;7.65;;
36423;SDS011;22458;45.328;9.514;2023-06-24T03:19:00;10.23;;;7.05;;
36423;SDS011;22458;45.328;9.514;2023-06-24T03:21:34;10.35;;;7.10;;
36423;SDS011;22458;45.328;9.514;2023-06-24T03:24:07;9.75;;;7.53;;
36423;SDS011;22458;45.328;9.514;2023-06-24T03:26:38;8.63;;;6.88;;
36423;SDS011;22458;45.328;9.514;2023-06-24T03:29:08;10.02;;;7.00;;
36423;SDS011;22458;45.328;9.514;2023-06-24T03:31:35;8.93;;;6.57;;
36423;SDS011;22458;45.328;9.514;2023-06-24T03:34:03;11.13;;;7.45;;
36423;SDS011;22458;45.328;9.514;2023-06-24T03:36:29;9.60;;;7.63;;
36423;SDS011;22458;45.328;9.514;2023-06-24T03:38:55;11.23;;;6.80;;
36423;SDS011;22458;45.328;9.514;2023-06-24T03:41:20;9.35;;;7.25;;
36423;SDS011;22458;45.328;9.514;2023-06-24T03:43:48;10.20;;;6.72;;
36423;SDS011;22458;45.328;9.514;2023-06-24T03:46:14;11.82;;;8.52;;
36423;SDS011;22458;45.328;9.514;2023-06-24T03:48:39;10.65;;;7.65;;
36423;SDS011;22458;45.328;9.514;2023-06-24T03:51:06;14.32;;;8.45;;
36423;SDS011;22458;45.328;9.514;2023-06-24T03:53:31;10.90;;;7.75;;
36423;SDS011;22458;45.328;9.514;2023-06-24T03:55:58;12.57;;;7.68;;
36423;SDS011;22458;45.328;9.514;2023-06-24T03:58:25;13.18;;;7.60;;
36423;SDS011;22458;45.328;9.514;2023-06-24T04:00:50;10.98;;;7.78;;
36423;SDS011;22458;45.328;9.514;2023-06-24T04:03:16;9.05;;;6.65;;
36423;SDS011;22458;45.328;9.514;2023-06-24T04:05:43;10.13;;;6.90;;
36423;SDS011;22458;45.328;9.514;2023-06-24T04:08:09;11.32;;;6.95;;
36423;SDS011;22458;45.328;9.514;2023-06-24T04:10:37;10.45;;;6.63;;
36423;SDS011;22458;45.328;9.514;2023-06-24T04:13:03;12.82;;;8.85;;
36423;SDS011;22458;45.328;9.514;2023-06-24T04:15:30;11.07;;;7.88;;
36423;SDS011;22458;45.328;9.514;2023-06-24T04:17:55;9.88;;;7.43;;
36423;SDS011;22458;45.328;9.514;2023-06-24T04:20:21;12.05;;;6.65;;
36423;SDS011;22458;45.328;9.514;2023-06-24T04:22:47;9.88;;;6.72;;
36423;SDS011;22458;45.328;9.514;2023-06-24T04:25:13;8.10;;;6.45;;
36423;SDS011;22458;45.328;9.514;2023-06-24T04:27:38;8.60;;;6.88;;
36423;SDS011;22458;45.328;9.514;2023-06-24T04:30:07;9.73;;;6.60;;
36423;SDS011;22458;45.328;9.514;2023-06-24T04:32:33;12.80;;;7.25;;
36423;SDS011;22458;45.328;9.514;2023-06-24T04:34:59;9.38;;;6.65;;
36423;SDS011;22458;45.328;9.514;2023-06-24T04:37:26;12.38;;;7.50;;
36423;SDS011;22458;45.328;9.514;2023-06-24T04:39:52;10.52;;;6.40;;
36423;SDS011;22458;45.328;9.514;2023-06-24T04:42:19;9.90;;;6.93;;
36423;SDS011;22458;45.328;9.514;2023-06-24T04:44:45;10.55;;;7.18;;
36423;SDS011;22458;45.328;9.514;2023-06-24T04:47:11;9.20;;;6.45;;
36423;SDS011;22458;45.328;9.514;2023-06-24T04:49:39;9.95;;;6.70;;
36423;SDS011;22458;45.328;9.514;2023-06-24T04:52:05;11.57;;;7.95;;
36423;SDS011;22458;45.328;9.514;2023-06-24T04:54:31;10.15;;;6.70;;
36423;SDS011;22458;45.328;9.514;2023-06-24T04:56:57;11.70;;;6.82;;
36423;SDS011;22458;45.328;9.514;2023-06-24T04:59:23;15.27;;;7.40;;
36423;SDS011;22458;45.328;9.514;2023-06-24T05:01:49;9.95;;;7.88;;
36423;SDS011;22458;45.328;9.514;2023-06-24T05:04:14;14.63;;;8.02;;
36423;SDS011;22458;45.328;9.514;2023-06-24T05:06:40;9.98;;;7.82;;
36423;SDS011;22458;45.328;9.514;2023-06-24T05:09:06;16.38;;;7.55;;
36423;SDS011;22458;45.328;9.514;2023-06-24T05:11:32;10.85;;;7.00;;
36423;SDS011;22458;45.328;9.514;2023-06-24T05:13:58;10.23;;;7.57;;
36423;SDS011;22458;45.328;9.514;2023-06-24T05:16:24;12.70;;;8.40;;
36423;SDS011;22458;45.328;9.514;2023-06-24T05:18:51;11.73;;;8.10;;
36423;SDS011;22458;45.328;9.514;2023-06-24T05:21:17;13.88;;;7.45;;
36423;SDS011;22458;45.328;9.514;2023-06-24T05:23:42;11.45;;;8.07;;
36423;SDS011;22458;45.328;9.514;2023-06-24T05:26:08;10.07;;;7.53;;
36423;SDS011;22458;45.328;9.514;2023-06-24T05:28:34;12.23;;;7.55;;
36423;SDS011;22458;45.328;9.514;2023-06-24T05:31:00;12.38;;;7.50;;
36423;SDS011;22458;45.328;9.514;2023-06-24T05:33:25;14.57;;;8.73;;
36423;SDS011;22458;45.328;9.514;2023-06-24T05:35:51;9.35;;;6.85;;
36423;SDS011;22458;45.328;9.514;2023-06-24T05:38:17;12.38;;;6.80;;
36423;SDS011;22458;45.328;9.514;2023-06-24T05:40:42;11.20;;;6.45;;
36423;SDS011;22458;45.328;9.514;2023-06-24T05:43:09;11.27;;;7.47;;
36423;SDS011;22458;45.328;9.514;2023-06-24T05:45:36;10.07;;;6.38;;
36423;SDS011;22458;45.328;9.514;2023-06-24T05:48:02;9.45;;;7.07;;
36423;SDS011;22458;45.328;9.514;2023-06-24T05:50:28;9.77;;;6.93;;
36423;SDS011;22458;45.328;9.514;2023-06-24T05:52:54;9.73;;;7.32;;
36423;SDS011;22458;45.328;9.514;2023-06-24T05:55:20;10.77;;;8.48;;
36423;SDS011;22458;45.328;9.514;2023-06-24T05:57:45;15.05;;;9.40;;
36423;SDS011;22458;45.328;9.514;2023-06-24T06:00:11;12.10;;;8.25;;
36423;SDS011;22458;45.328;9.514;2023-06-24T06:02:43;13.38;;;8.68;;
36423;SDS011;22458;45.328;9.514;2023-06-24T06:05:09;13.77;;;8.20;;
36423;SDS011;22458;45.328;9.514;2023-06-24T06:07:35;14.43;;;7.78;;
36423;SDS011;22458;45.328;9.514;2023-06-24T06:10:04;11.23;;;8.07;;
36423;SDS011;22458;45.328;9.514;2023-06-24T06:12:31;11.38;;;8.98;;
36423;SDS011;22458;45.328;9.514;2023-06-24T06:14:57;13.63;;;7.72;;
36423;SDS011;22458;45.328;9.514;2023-06-24T06:17:23;17.95;;;8.45;;
36423;SDS011;22458;45.328;9.514;2023-06-24T06:19:49;16.48;;;8.88;;
36423;SDS011;22458;45.328;9.514;2023-06-24T06:22:14;12.25;;;7.72;;
36423;SDS011;22458;45.328;9.514;2023-06-24T06:24:40;11.40;;;6.85;;
36423;SDS011;22458;45.328;9.514;2023-06-24T06:27:09;18.05;;;9.35;;
36423;SDS011;22458;45.328;9.514;2023-06-24T06:29:36;11.35;;;7.43;;
36423;SDS011;22458;45.328;9.514;2023-06-24T06:32:02;12.82;;;8.38;;
36423;SDS011;22458;45.328;9.514;2023-06-24T06:34:28;14.95;;;8.40;;
36423;SDS011;22458;45.328;9.514;2023-06-24T06:36:54;13.05;;;8.23;;
36423;SDS011;22458;45.328;9.514;2023-06-24T06:39:20;10.77;;;8.05;;
36423;SDS011;22458;45.328;9.514;2023-06-24T06:41:45;11.50;;;7.70;;
36423;SDS011;22458;45.328;9.514;2023-06-24T06:44:14;8.85;;;6.57;;
36423;SDS011;22458;45.328;9.514;2023-06-24T06:46:40;8.38;;;6.03;;
36423;SDS011;22458;45.328;9.514;2023-06-24T06:49:06;8.10;;;5.10;;
36423;SDS011;22458;45.328;9.514;2023-06-24T06:51:32;6.63;;;4.35;;
36423;SDS011;22458;45.328;9.514;2023-06-24T06:53:58;9.18;;;4.30;;
36423;SDS011;22458;45.328;9.514;2023-06-24T06:56:24;6.45;;;4.40;;
36423;SDS011;22458;45.328;9.514;2023-06-24T06:58:53;5.75;;;3.85;;
36423;SDS011;22458;45.328;9.514;2023-06-24T07:03:45;4.97;;;3.80;;
36423;SDS011;22458;45.328;9.514;2023-06-24T07:06:10;4.95;;;3.38;;
36423;SDS011;22458;45.328;9.514;2023-06-24T07:08:36;7.00;;;3.95;;
36423;SDS011;22458;45.328;9.514;2023-06-24T07:11:02;8.35;;;3.13;;
36423;SDS011;22458;45.328;9.514;2023-06-24T07:13:28;5.20;;;3.58;;
36423;SDS011;22458;45.328;9.514;2023-06-24T07:15:54;6.82;;;3.45;;
36423;SDS011;22458;45.328;9.514;2023-06-24T07:18:19;5.38;;;3.65;;
36423;SDS011;22458;45.328;9.514;2023-06-24T07:20:45;6.22;;;3.05;;
36423;SDS011;22458;45.328;9.514;2023-06-24T07:23:14;5.20;;;3.45;;
36423;SDS011;22458;45.328;9.514;2023-06-24T07:25:39;4.90;;;3.63;;
36423;SDS011;22458;45.328;9.514;2023-06-24T07:28:05;6.20;;;3.55;;
36423;SDS011;22458;45.328;9.514;2023-06-24T07:30:34;5.53;;;3.83;;
36423;SDS011;22458;45.328;9.514;2023-06-24T07:33:00;5.07;;;3.63;;
36423;SDS011;22458;45.328;9.514;2023-06-24T07:35:30;6.43;;;3.55;;
36423;SDS011;22458;45.328;9.514;2023-06-24T07:37:57;5.78;;;3.20;;
36423;SDS011;22458;45.328;9.514;2023-06-24T07:40:23;4.80;;;3.30;;
36423;SDS011;22458;45.328;9.514;2023-06-24T07:42:49;5.70;;;3.38;;
36423;SDS011;22458;45.328;9.514;2023-06-24T07:45:15;6.00;;;3.70;;
36423;SDS011;22458;45.328;9.514;2023-06-24T07:47:41;5.88;;;3.63;;
36423;SDS011;22458;45.328;9.514;2023-06-24T07:50:06;6.32;;;3.25;;
36423;SDS011;22458;45.328;9.514;2023-06-24T07:52:34;6.60;;;3.35;;
36423;SDS011;22458;45.328;9.514;2023-06-24T07:54:59;5.28;;;3.75;;
36423;SDS011;22458;45.328;9.514;2023-06-24T07:57:26;5.68;;;3.40;;
36423;SDS011;22458;45.328;9.514;2023-06-24T07:59:52;6.13;;;3.50;;
36423;SDS011;22458;45.328;9.514;2023-06-24T08:02:19;8.32;;;3.83;;
36423;SDS011;22458;45.328;9.514;2023-06-24T08:04:45;7.35;;;2.97;;
36423;SDS011;22458;45.328;9.514;2023-06-24T08:07:11;7.18;;;3.92;;
36423;SDS011;22458;45.328;9.514;2023-06-24T08:09:37;6.25;;;3.15;;
36423;SDS011;22458;45.328;9.514;2023-06-24T08:12:03;6.25;;;2.95;;
36423;SDS011;22458;45.328;9.514;2023-06-24T08:14:29;5.05;;;3.97;;
36423;SDS011;22458;45.328;9.514;2023-06-24T08:16:57;6.20;;;3.80;;
36423;SDS011;22458;45.328;9.514;2023-06-24T08:19:23;4.63;;;3.33;;
36423;SDS011;22458;45.328;9.514;2023-06-24T08:21:48;5.82;;;3.38;;
36423;SDS011;22458;45.328;9.514;2023-06-24T08:24:14;5.28;;;3.25;;
36423;SDS011;22458;45.328;9.514;2023-06-24T08:26:40;7.40;;;4.07;;
36423;SDS011;22458;45.328;9.514;2023-06-24T08:29:06;5.30;;;3.38;;
36423;SDS011;22458;45.328;9.514;2023-06-24T08:31:32;3.50;;;2.83;;
36423;SDS011;22458;45.328;9.514;2023-06-24T08:34:01;7.47;;;4.03;;
36423;SDS011;22458;45.328;9.514;2023-06-24T08:36:28;7.55;;;4.13;;
36423;SDS011;22458;45.328;9.514;2023-06-24T08:38:54;6.78;;;4.13;;
36423;SDS011;22458;45.328;9.514;2023-06-24T08:41:20;5.90;;;3.90;;
36423;SDS011;22458;45.328;9.514;2023-06-24T08:43:47;5.15;;;3.10;;
36423;SDS011;22458;45.328;9.514;2023-06-24T08:46:13;5.20;;;3.30;;
36423;SDS011;22458;45.328;9.514;2023-06-24T08:48:42;6.15;;;3.28;;
36423;SDS011;22458;45.328;9.514;2023-06-24T08:51:11;7.45;;;3.38;;
36423;SDS011;22458;45.328;9.514;2023-06-24T08:53:42;8.57;;;3.33;;
36423;SDS011;22458;45.328;9.514;2023-06-24T08:56:09;8.77;;;3.28;;
36423;SDS011;22458;45.328;9.514;2023-06-24T08:58:35;4.43;;;2.78;;
36423;SDS011;22458;45.328;9.514;2023-06-24T09:01:01;6.95;;;3.65;;
36423;SDS011;22458;45.328;9.514;2023-06-24T09:03:28;7.40;;;3.47;;
36423;SDS011;22458;45.328;9.514;2023-06-24T09:05:53;5.07;;;3.17;;
36423;SDS011;22458;45.328;9.514;2023-06-24T09:08:19;3.05;;;2.63;;
36423;SDS011;22458;45.328;9.514;2023-06-24T09:10:52;5.85;;;2.78;;
36423;SDS011;22458;45.328;9.514;2023-06-24T09:13:20;6.43;;;2.70;;
36423;SDS011;22458;45.328;9.514;2023-06-24T09:15:52;5.53;;;2.28;;
36423;SDS011;22458;45.328;9.514;2023-06-24T09:18:18;3.80;;;2.15;;
36423;SDS011;22458;45.328;9.514;2023-06-24T09:20:45;4.57;;;2.17;;
36423;SDS011;22458;45.328;9.514;2023-06-24T09:23:15;4.15;;;2.65;;
36423;SDS011;22458;45.328;9.514;2023-06-24T09:25:42;7.82;;;2.50;;
36423;SDS011;22458;45.328;9.514;2023-06-24T09:28:08;3.28;;;2.67;;
36423;SDS011;22458;45.328;9.514;2023-06-24T09:30:34;3.38;;;2.17;;
36423;SDS011;22458;45.328;9.514;2023-06-24T09:33:00;5.20;;;2.10;;
36423;SDS011;22458;45.328;9.514;2023-06-24T09:35:26;3.63;;;1.75;;
36423;SDS011;22458;45.328;9.514;2023-06-24T09:37:52;2.97;;;1.77;;
36423;SDS011;22458;45.328;9.514;2023-06-24T09:40:19;3.83;;;1.90;;
36423;SDS011;22458;45.328;9.514;2023-06-24T09:42:54;3.25;;;1.30;;
36423;SDS011;22458;45.328;9.514;2023-06-24T09:45:25;5.30;;;1.77;;
36423;SDS011;22458;45.328;9.514;2023-06-24T09:47:52;5.88;;;2.10;;
36423;SDS011;22458;45.328;9.514;2023-06-24T09:50:19;2.75;;;1.63;;
36423;SDS011;22458;45.328;9.514;2023-06-24T09:52:45;2.50;;;1.63;;
36423;SDS011;22458;45.328;9.514;2023-06-24T09:55:12;2.20;;;1.55;;
36423;SDS011;22458;45.328;9.514;2023-06-24T09:57:40;3.60;;;1.80;;
36423;SDS011;22458;45.328;9.514;2023-06-24T10:00:10;2.88;;;1.90;;
36423;SDS011;22458;45.328;9.514;2023-06-24T10:02:40;2.55;;;1.77;;
36423;SDS011;22458;45.328;9.514;2023-06-24T10:05:07;2.65;;;1.58;;
36423;SDS011;22458;45.328;9.514;2023-06-24T10:07:37;3.47;;;1.75;;
36423;SDS011;22458;45.328;9.514;2023-06-24T10:10:04;3.85;;;1.20;;
36423;SDS011;22458;45.328;9.514;2023-06-24T10:12:31;6.95;;;2.67;;
36423;SDS011;22458;45.328;9.514;2023-06-24T10:14:59;6.60;;;3.88;;
36423;SDS011;22458;45.328;9.514;2023-06-24T10:17:26;3.42;;;2.30;;
36423;SDS011;22458;45.328;9.514;2023-06-24T10:19:52;3.15;;;1.65;;
36423;SDS011;22458;45.328;9.514;2023-06-24T10:22:21;3.03;;;1.65;;
36423;SDS011;22458;45.328;9.514;2023-06-24T10:24:54;2.85;;;1.67;;
36423;SDS011;22458;45.328;9.514;2023-06-24T10:27:38;3.70;;;1.38;;
36423;SDS011;22458;45.328;9.514;2023-06-24T10:30:17;2.13;;;1.27;;
36423;SDS011;22458;45.328;9.514;2023-06-24T10:32:51;3.67;;;1.58;;
36423;SDS011;22458;45.328;9.514;2023-06-24T10:37:55;2.33;;;1.70;;
36423;SDS011;22458;45.328;9.514;2023-06-24T10:45:57;3.10;;;1.23;;
36423;SDS011;22458;45.328;9.514;2023-06-24T10:48:26;3.17;;;1.48;;
36423;SDS011;22458;45.328;9.514;2023-06-24T10:50:52;3.70;;;1.33;;
36423;SDS011;22458;45.328;9.514;2023-06-24T10:53:18;4.85;;;1.63;;
36423;SDS011;22458;45.328;9.514;2023-06-24T10:55:45;2.67;;;1.55;;
36423;SDS011;22458;45.328;9.514;2023-06-24T11:00:40;1.95;;;1.70;;
36423;SDS011;22458;45.328;9.514;2023-06-24T11:03:15;3.25;;;1.35;;
36423;SDS011;22458;45.328;9.514;2023-06-24T11:05:42;2.88;;;1.45;;
36423;SDS011;22458;45.328;9.514;2023-06-24T11:08:09;1.50;;;1.40;;
36423;SDS011;22458;45.328;9.514;2023-06-24T11:10:45;4.22;;;1.33;;
36423;SDS011;22458;45.328;9.514;2023-06-24T11:13:12;2.75;;;1.60;;
36423;SDS011;22458;45.328;9.514;2023-06-24T11:15:39;4.20;;;1.90;;
36423;SDS011;22458;45.328;9.514;2023-06-24T11:18:07;1.77;;;1.42;;
36423;SDS011;22458;45.328;9.514;2023-06-24T11:20:35;2.15;;;1.40;;
36423;SDS011;22458;45.328;9.514;2023-06-24T11:23:05;2.27;;;1.40;;
36423;SDS011;22458;45.328;9.514;2023-06-24T11:25:38;1.80;;;1.38;;
36423;SDS011;22458;45.328;9.514;2023-06-24T11:28:17;2.20;;;1.50;;
36423;SDS011;22458;45.328;9.514;2023-06-24T11:30:43;3.33;;;1.60;;
36423;SDS011;22458;45.328;9.514;2023-06-24T11:33:09;4.47;;;1.95;;
36423;SDS011;22458;45.328;9.514;2023-06-24T11:35:35;2.28;;;1.55;;
36423;SDS011;22458;45.328;9.514;2023-06-24T11:38:02;3.30;;;1.50;;
36423;SDS011;22458;45.328;9.514;2023-06-24T11:40:30;2.65;;;1.75;;
36423;SDS011;22458;45.328;9.514;2023-06-24T11:42:59;3.67;;;1.65;;
36423;SDS011;22458;45.328;9.514;2023-06-24T11:45:27;2.63;;;1.20;;
36423;SDS011;22458;45.328;9.514;2023-06-24T11:47:52;2.22;;;1.52;;
36423;SDS011;22458;45.328;9.514;2023-06-24T11:50:26;2.90;;;1.38;;
36423;SDS011;22458;45.328;9.514;2023-06-24T11:52:54;4.55;;;1.95;;
36423;SDS011;22458;45.328;9.514;2023-06-24T11:55:23;3.10;;;1.70;;
36423;SDS011;22458;45.328;9.514;2023-06-24T11:58:00;2.35;;;1.58;;
36423;SDS011;22458;45.328;9.514;2023-06-24T12:03:06;2.08;;;1.48;;
36423;SDS011;22458;45.328;9.514;2023-06-24T12:05:34;2.22;;;1.50;;
36423;SDS011;22458;45.328;9.514;2023-06-24T12:08:08;2.70;;;2.08;;
36423;SDS011;22458;45.328;9.514;2023-06-24T12:10:35;3.47;;;1.73;;
36423;SDS011;22458;45.328;9.514;2023-06-24T12:13:02;2.08;;;1.33;;
36423;SDS011;22458;45.328;9.514;2023-06-24T12:15:30;2.15;;;1.63;;
36423;SDS011;22458;45.328;9.514;2023-06-24T12:17:57;3.55;;;1.83;;
36423;SDS011;22458;45.328;9.514;2023-06-24T12:20:26;2.22;;;1.60;;
36423;SDS011;22458;45.328;9.514;2023-06-24T12:22:52;1.52;;;1.20;;
36423;SDS011;22458;45.328;9.514;2023-06-24T12:25:17;4.15;;;1.70;;
36423;SDS011;22458;45.328;9.514;2023-06-24T12:27:43;5.97;;;4.00;;
36423;SDS011;22458;45.328;9.514;2023-06-24T12:30:10;4.95;;;2.92;;
36423;SDS011;22458;45.328;9.514;2023-06-24T12:32:36;5.78;;;1.63;;
36423;SDS011;22458;45.328;9.514;2023-06-24T12:35:03;2.95;;;2.17;;
36423;SDS011;22458;45.328;9.514;2023-06-24T12:37:32;5.57;;;1.52;;
36423;SDS011;22458;45.328;9.514;2023-06-24T12:40:02;2.17;;;1.20;;
36423;SDS011;22458;45.328;9.514;2023-06-24T12:42:29;2.03;;;1.38;;
36423;SDS011;22458;45.328;9.514;2023-06-24T12:44:55;2.88;;;1.55;;
36423;SDS011;22458;45.328;9.514;2023-06-24T12:47:21;2.53;;;1.38;;
36423;SDS011;22458;45.328;9.514;2023-06-24T12:49:47;2.33;;;1.42;;
36423;SDS011;22458;45.328;9.514;2023-06-24T12:52:14;2.83;;;2.00;;
36423;SDS011;22458;45.328;9.514;2023-06-24T12:54:40;1.73;;;1.40;;
36423;SDS011;22458;45.328;9.514;2023-06-24T12:57:06;3.28;;;1.90;;
36423;SDS011;22458;45.328;9.514;2023-06-24T12:59:32;1.45;;;1.05;;
36423;SDS011;22458;45.328;9.514;2023-06-24T13:01:58;1.80;;;1.40;;
36423;SDS011;22458;45.328;9.514;2023-06-24T13:04:24;2.22;;;1.55;;
36423;SDS011;22458;45.328;9.514;2023-06-24T13:06:53;2.50;;;1.80;;
36423;SDS011;22458;45.328;9.514;2023-06-24T13:09:19;4.45;;;1.73;;
36423;SDS011;22458;45.328;9.514;2023-06-24T13:11:45;2.75;;;1.30;;
36423;SDS011;22458;45.328;9.514;2023-06-24T13:14:12;3.30;;;1.52;;
36423;SDS011;22458;45.328;9.514;2023-06-24T13:16:38;2.22;;;1.38;;
36423;SDS011;22458;45.328;9.514;2023-06-24T13:19:04;3.63;;;1.60;;
36423;SDS011;22458;45.328;9.514;2023-06-24T13:21:30;1.95;;;1.40;;
36423;SDS011;22458;45.328;9.514;2023-06-24T13:23:56;2.13;;;1.80;;
36423;SDS011;22458;45.328;9.514;2023-06-24T13:26:21;1.90;;;1.45;;
36423;SDS011;22458;45.328;9.514;2023-06-24T13:28:47;1.90;;;1.52;;
36423;SDS011;22458;45.328;9.514;2023-06-24T13:31:14;2.25;;;1.50;;
36423;SDS011;22458;45.328;9.514;2023-06-24T13:33:40;2.25;;;1.02;;
36423;SDS011;22458;45.328;9.514;2023-06-24T13:36:06;2.75;;;1.13;;
36423;SDS011;22458;45.328;9.514;2023-06-24T13:38:36;2.50;;;1.50;;
36423;SDS011;22458;45.328;9.514;2023-06-24T13:41:02;1.67;;;1.20;;
36423;SDS011;22458;45.328;9.514;2023-06-24T13:43:28;3.67;;;1.50;;
36423;SDS011;22458;45.328;9.514;2023-06-24T13:45:54;4.78;;;1.33;;
36423;SDS011;22458;45.328;9.514;2023-06-24T13:48:19;2.17;;;1.42;;
36423;SDS011;22458;45.328;9.514;2023-06-24T13:50:45;2.80;;;1.42;;
36423;SDS011;22458;45.328;9.514;2023-06-24T13:53:11;2.22;;;1.55;;
36423;SDS011;22458;45.328;9.514;2023-06-24T13:55:37;3.05;;;1.60;;
36423;SDS011;22458;45.328;9.514;2023-06-24T13:58:03;1.80;;;1.20;;
36423;SDS011;22458;45.328;9.514;2023-06-24T14:00:28;3.55;;;1.70;;
36423;SDS011;22458;45.328;9.514;2023-06-24T14:02:54;1.52;;;1.10;;
36423;SDS011;22458;45.328;9.514;2023-06-24T14:05:20;2.45;;;1.70;;
36423;SDS011;22458;45.328;9.514;2023-06-24T14:07:46;4.30;;;1.65;;
36423;SDS011;22458;45.328;9.514;2023-06-24T14:10:11;4.53;;;1.85;;
36423;SDS011;22458;45.328;9.514;2023-06-24T14:12:37;4.55;;;1.55;;
36423;SDS011;22458;45.328;9.514;2023-06-24T14:15:04;2.92;;;1.40;;
36423;SDS011;22458;45.328;9.514;2023-06-24T14:17:30;3.97;;;1.55;;
36423;SDS011;22458;45.328;9.514;2023-06-24T14:19:56;3.30;;;1.45;;
36423;SDS011;22458;45.328;9.514;2023-06-24T14:22:21;2.90;;;1.45;;
36423;SDS011;22458;45.328;9.514;2023-06-24T14:24:51;3.25;;;1.42;;
36423;SDS011;22458;45.328;9.514;2023-06-24T14:27:16;3.92;;;1.40;;
36423;SDS011;22458;45.328;9.514;2023-06-24T14:29:42;3.90;;;1.58;;
36423;SDS011;22458;45.328;9.514;2023-06-24T14:32:08;2.20;;;1.50;;
36423;SDS011;22458;45.328;9.514;2023-06-24T14:34:34;2.33;;;1.65;;
36423;SDS011;22458;45.328;9.514;2023-06-24T14:36:59;2.90;;;1.95;;
36423;SDS011;22458;45.328;9.514;2023-06-24T14:39:25;4.18;;;1.52;;
36423;SDS011;22458;45.328;9.514;2023-06-24T14:41:51;6.20;;;3.00;;
36423;SDS011;22458;45.328;9.514;2023-06-24T14:44:17;3.45;;;2.15;;
36423;SDS011;22458;45.328;9.514;2023-06-24T14:46:42;5.53;;;3.92;;
36423;SDS011;22458;45.328;9.514;2023-06-24T14:49:08;3.10;;;2.42;;
36423;SDS011;22458;45.328;9.514;2023-06-24T14:51:34;2.60;;;1.83;;
36423;SDS011;22458;45.328;9.514;2023-06-24T14:53:59;2.97;;;2.38;;
36423;SDS011;22458;45.328;9.514;2023-06-24T14:56:25;3.65;;;2.35;;
36423;SDS011;22458;45.328;9.514;2023-06-24T14:58:51;3.67;;;2.95;;
36423;SDS011;22458;45.328;9.514;2023-06-24T15:01:17;3.40;;;2.53;;
36423;SDS011;22458;45.328;9.514;2023-06-24T15:03:43;3.78;;;2.25;;
36423;SDS011;22458;45.328;9.514;2023-06-24T15:06:08;2.05;;;1.60;;
36423;SDS011;22458;45.328;9.514;2023-06-24T15:08:37;3.03;;;1.80;;
36423;SDS011;22458;45.328;9.514;2023-06-24T15:11:03;2.90;;;2.30;;
36423;SDS011;22458;45.328;9.514;2023-06-24T15:13:29;4.15;;;1.80;;
36423;SDS011;22458;45.328;9.514;2023-06-24T15:15:55;2.63;;;1.75;;
36423;SDS011;22458;45.328;9.514;2023-06-24T15:18:21;2.47;;;1.55;;
36423;SDS011;22458;45.328;9.514;2023-06-24T15:20:48;2.85;;;1.75;;
36423;SDS011;22458;45.328;9.514;2023-06-24T15:23:13;2.88;;;1.73;;